createdAt,value
2023-02-19T00:00:30.684Z,10.44
2023-02-19T00:01:36.817Z,10.45
2023-02-19T00:02:39.579Z,10.44
2023-02-19T00:03:44.053Z,10.47
2023-02-19T00:04:47.111Z,10.37
2023-02-19T00:05:49.988Z,10.38
2023-02-19T00:06:52.821Z,10.45
2023-02-19T00:07:55.618Z,10.43
2023-02-19T00:08:59.171Z,10.33
2023-02-19T00:10:01.984Z,10.32
2023-02-19T00:11:08.601Z,10.30
2023-02-19T00:12:12.014Z,10.28
2023-02-19T00:13:15.254Z,10.28
2023-02-19T00:14:20.941Z,10.31
2023-02-19T00:15:23.821Z,10.23
2023-02-19T00:16:30.495Z,10.28
2023-02-19T00:17:33.812Z,10.24
2023-02-19T00:18:36.935Z,10.21
2023-02-19T00:19:39.866Z,10.20
2023-02-19T00:20:43.335Z,10.16
2023-02-19T00:21:46.526Z,10.11
2023-02-19T00:22:49.334Z,10.13
2023-02-19T00:24:01.056Z,10.07
2023-02-19T00:25:04.013Z,10.09
2023-02-19T00:26:18.535Z,10.11
2023-02-19T00:27:21.722Z,10.10
2023-02-19T00:28:24.813Z,10.08
2023-02-19T00:29:28.014Z,10.08
2023-02-19T00:30:31.201Z,10.02
2023-02-19T00:31:36.207Z,9.99
2023-02-19T00:32:39.263Z,9.96
2023-02-19T00:33:42.460Z,9.95
2023-02-19T00:34:45.130Z,9.92
2023-02-19T00:35:48.018Z,9.92
2023-02-19T00:36:51.017Z,9.89
2023-02-19T00:37:53.865Z,9.90
2023-02-19T00:38:57.303Z,9.93
2023-02-19T00:40:00.062Z,9.91
2023-02-19T00:41:19.390Z,9.90
2023-02-19T00:42:22.192Z,9.90
2023-02-19T00:43:24.975Z,9.96
2023-02-19T00:44:28.014Z,9.96
2023-02-19T00:45:30.907Z,9.97
2023-02-19T00:46:39.383Z,9.96
2023-02-19T00:47:42.380Z,10.03
2023-02-19T00:48:45.434Z,10.00
2023-02-19T00:49:48.236Z,9.99
2023-02-19T00:50:51.223Z,10.00
2023-02-19T00:51:54.186Z,10.00
2023-02-19T00:52:56.910Z,10.02
2023-02-19T00:54:00.469Z,9.98
2023-02-19T00:55:04.061Z,9.98
2023-02-19T00:56:07.903Z,9.96
2023-02-19T00:57:10.701Z,9.95
2023-02-19T00:58:14.257Z,9.97
2023-02-19T00:59:17.169Z,10.11
2023-02-19T01:00:20.139Z,10.07
2023-02-19T01:01:23.461Z,9.99
2023-02-19T01:02:27.103Z,9.96
2023-02-19T01:03:30.225Z,9.93
2023-02-19T01:04:33.432Z,9.92
2023-02-19T01:05:36.175Z,9.97
2023-02-19T01:06:39.657Z,9.96
2023-02-19T01:07:42.462Z,9.92
2023-02-19T01:08:46.790Z,9.96
2023-02-19T01:09:49.858Z,9.95
2023-02-19T01:10:52.717Z,9.96
2023-02-19T01:11:55.590Z,10.01
2023-02-19T01:12:58.410Z,10.01
2023-02-19T01:14:02.635Z,10.00
2023-02-19T01:15:05.734Z,10.00
2023-02-19T01:16:14.687Z,9.99
2023-02-19T01:17:17.598Z,9.97
2023-02-19T01:18:20.867Z,9.95
2023-02-19T01:19:24.213Z,9.94
2023-02-19T01:20:27.772Z,9.94
2023-02-19T01:21:31.372Z,10.02
2023-02-19T01:22:34.225Z,10.03
2023-02-19T01:23:37.036Z,10.15
2023-02-19T01:24:39.962Z,10.09
2023-02-19T01:25:43.081Z,10.11
2023-02-19T01:26:46.149Z,10.13
2023-02-19T01:27:49.556Z,10.09
2023-02-19T01:28:53.562Z,10.07
2023-02-19T01:29:56.424Z,10.08
2023-02-19T01:31:07.454Z,10.09
2023-02-19T01:32:10.737Z,10.10
2023-02-19T01:33:13.807Z,10.10
2023-02-19T01:34:16.852Z,10.17
2023-02-19T01:35:19.692Z,10.21
2023-02-19T01:36:23.240Z,10.20
2023-02-19T01:37:26.083Z,10.18
2023-02-19T01:38:28.997Z,10.18
2023-02-19T01:39:32.160Z,10.16
2023-02-19T01:40:35.329Z,10.14
2023-02-19T01:41:40.890Z,10.14
2023-02-19T01:42:44.550Z,10.16
2023-02-19T01:44:05.014Z,10.17
2023-02-19T01:45:32.633Z,10.09
2023-02-19T01:46:39.832Z,10.09
2023-02-19T01:47:42.863Z,10.02
2023-02-19T01:48:46.816Z,9.98
2023-02-19T01:49:57.140Z,9.94
2023-02-19T01:51:11.150Z,9.95
2023-02-19T01:52:22.753Z,9.91
2023-02-19T01:53:30.002Z,9.85
2023-02-19T01:54:38.448Z,9.80
2023-02-19T01:55:42.798Z,9.75
2023-02-19T01:56:48.205Z,9.74
2023-02-19T01:57:55.272Z,9.71
2023-02-19T01:58:59.358Z,9.67
2023-02-19T02:00:10.365Z,9.71
2023-02-19T02:01:13.991Z,9.69
2023-02-19T02:02:17.257Z,9.69
2023-02-19T02:03:21.057Z,9.73
2023-02-19T02:04:24.392Z,9.67
2023-02-19T02:05:41.672Z,9.67
2023-02-19T02:06:50.746Z,9.70
2023-02-19T02:08:12.364Z,9.69
2023-02-19T02:09:35.768Z,9.72
2023-02-19T02:10:38.933Z,9.74
2023-02-19T02:11:50.609Z,9.84
2023-02-19T02:12:56.611Z,9.79
2023-02-19T02:13:59.569Z,9.80
2023-02-19T02:15:03.197Z,9.85
2023-02-19T02:16:15.146Z,9.84
2023-02-19T02:17:26.900Z,9.87
2023-02-19T02:18:45.051Z,9.83
2023-02-19T02:20:02.932Z,9.85
2023-02-19T02:21:21.933Z,9.78
2023-02-19T02:22:28.858Z,9.85
2023-02-19T02:23:57.912Z,9.86
2023-02-19T02:25:19.274Z,9.78
2023-02-19T02:26:42.745Z,9.76
2023-02-19T02:28:14.377Z,9.83
2023-02-19T02:29:23.191Z,9.82
2023-02-19T02:30:40.291Z,9.79
2023-02-19T02:31:50.246Z,9.74
2023-02-19T02:33:07.332Z,9.81
2023-02-19T02:34:24.867Z,9.81
2023-02-19T02:35:33.213Z,9.82
2023-02-19T02:36:47.399Z,9.83
2023-02-19T02:37:53.394Z,9.85
2023-02-19T02:38:58.607Z,9.83
2023-02-19T02:40:03.312Z,9.86
2023-02-19T02:41:07.036Z,9.82
2023-02-19T02:42:28.038Z,9.88
2023-02-19T02:43:31.357Z,9.89
2023-02-19T02:44:35.883Z,9.87
2023-02-19T02:45:40.164Z,9.81
2023-02-19T02:46:45.526Z,9.78
2023-02-19T02:47:53.211Z,9.79
2023-02-19T02:49:05.752Z,9.88
2023-02-19T02:50:25.879Z,9.93
2023-02-19T02:51:37.990Z,9.87
2023-02-19T02:53:03.703Z,9.86
2023-02-19T02:54:47.440Z,9.81
2023-02-19T02:55:53.520Z,9.74
2023-02-19T02:56:58.760Z,9.73
2023-02-19T02:58:02.653Z,9.77
2023-02-19T02:59:09.500Z,9.73
2023-02-19T03:00:13.461Z,9.68
2023-02-19T03:01:40.018Z,9.59
2023-02-19T03:02:44.318Z,9.55
2023-02-19T03:03:52.442Z,9.49
2023-02-19T03:05:31.343Z,9.46
2023-02-19T03:06:36.594Z,9.39
2023-02-19T03:07:45.612Z,9.37
2023-02-19T03:08:52.777Z,9.40
2023-02-19T03:09:58.684Z,9.37
2023-02-19T03:11:26.414Z,9.36
2023-02-19T03:12:49.663Z,9.36
2023-02-19T03:14:17.680Z,9.37
2023-02-19T03:15:40.390Z,9.41
2023-02-19T03:17:03.854Z,9.38
2023-02-19T03:18:28.763Z,9.42
2023-02-19T03:19:38.135Z,9.50
2023-02-19T03:20:46.894Z,9.48
2023-02-19T03:21:59.541Z,9.53
2023-02-19T03:23:02.618Z,9.51
2023-02-19T03:24:27.426Z,9.49
2023-02-19T03:25:51.263Z,9.49
2023-02-19T03:26:56.176Z,9.46
2023-02-19T03:28:01.977Z,9.47
2023-02-19T03:29:23.256Z,9.47
2023-02-19T03:30:30.810Z,9.46
2023-02-19T03:31:35.349Z,9.44
2023-02-19T03:32:46.644Z,9.47
2023-02-19T03:33:55.968Z,9.44
2023-02-19T03:35:06.317Z,9.41
2023-02-19T03:36:13.516Z,9.41
2023-02-19T03:37:25.379Z,9.40
2023-02-19T03:38:37.131Z,9.43
2023-02-19T03:39:44.658Z,9.41
2023-02-19T03:41:01.020Z,9.38
2023-02-19T03:42:12.749Z,9.35
2023-02-19T03:43:30.884Z,9.34
2023-02-19T03:44:52.559Z,9.30
2023-02-19T03:46:07.765Z,9.32
2023-02-19T03:47:25.692Z,9.24
2023-02-19T03:48:35.266Z,9.21
2023-02-19T03:49:55.308Z,9.22
2023-02-19T03:51:26.145Z,9.20
2023-02-19T03:52:42.019Z,9.14
2023-02-19T03:53:44.761Z,9.16
2023-02-19T03:54:50.910Z,9.13
2023-02-19T03:56:16.535Z,9.11
2023-02-19T03:57:32.107Z,9.19
2023-02-19T03:58:51.691Z,9.22
2023-02-19T04:00:38.192Z,9.19
2023-02-19T04:02:39.778Z,9.20
2023-02-19T04:04:01.857Z,9.20
2023-02-19T04:05:09.938Z,9.31
2023-02-19T04:06:18.061Z,9.28
2023-02-19T04:07:22.420Z,9.31
2023-02-19T04:08:27.191Z,9.29
2023-02-19T04:09:44.110Z,9.34
2023-02-19T04:10:48.021Z,9.37
2023-02-19T04:11:53.024Z,9.36
2023-02-19T04:13:01.661Z,9.33
2023-02-19T04:14:23.471Z,9.32
2023-02-19T04:15:31.545Z,9.30
2023-02-19T04:16:39.110Z,9.32
2023-02-19T04:17:54.837Z,9.36
2023-02-19T04:19:04.627Z,9.33
2023-02-19T04:20:10.381Z,9.32
2023-02-19T04:21:15.874Z,9.30
2023-02-19T04:22:20.301Z,9.22
2023-02-19T04:23:27.099Z,9.19
2023-02-19T04:24:43.072Z,9.17
2023-02-19T04:25:49.147Z,9.12
2023-02-19T04:26:53.275Z,9.10
2023-02-19T04:27:56.388Z,9.11
2023-02-19T04:28:59.505Z,9.14
2023-02-19T04:30:02.523Z,9.13
2023-02-19T04:31:07.051Z,9.09
2023-02-19T04:32:13.680Z,9.04
2023-02-19T04:33:16.601Z,9.04
2023-02-19T04:34:19.492Z,9.04
2023-02-19T04:35:22.407Z,9.10
2023-02-19T04:36:25.338Z,9.14
2023-02-19T04:37:28.159Z,9.06
2023-02-19T04:38:33.878Z,8.94
2023-02-19T04:39:36.820Z,8.96
2023-02-19T04:40:40.047Z,8.90
2023-02-19T04:41:42.978Z,8.84
2023-02-19T04:42:45.902Z,8.87
2023-02-19T04:43:48.942Z,8.89
2023-02-19T04:44:51.961Z,8.89
2023-02-19T04:45:54.917Z,8.80
2023-02-19T04:46:57.997Z,8.72
2023-02-19T04:48:01.401Z,8.70
2023-02-19T04:49:04.313Z,8.73
2023-02-19T04:50:08.054Z,8.69
2023-02-19T04:51:11.543Z,8.60
2023-02-19T04:52:14.665Z,8.52
2023-02-19T04:53:17.619Z,8.49
2023-02-19T04:54:20.560Z,8.48
2023-02-19T04:55:23.421Z,8.45
2023-02-19T04:56:26.425Z,8.43
2023-02-19T04:57:29.441Z,8.48
2023-02-19T04:58:32.264Z,8.42
2023-02-19T04:59:35.089Z,8.42
2023-02-19T05:00:37.964Z,8.45
2023-02-19T05:01:41.306Z,8.42
2023-02-19T05:02:44.199Z,8.39
2023-02-19T05:03:47.389Z,8.39
2023-02-19T05:04:50.352Z,8.38
2023-02-19T05:05:53.535Z,8.37
2023-02-19T05:06:56.450Z,8.35
2023-02-19T05:07:59.538Z,8.35
2023-02-19T05:09:02.850Z,8.35
2023-02-19T05:10:06.525Z,8.34
2023-02-19T05:11:12.635Z,8.32
2023-02-19T05:12:15.715Z,8.31
2023-02-19T05:13:18.521Z,8.34
2023-02-19T05:14:21.561Z,8.32
2023-02-19T05:15:24.302Z,8.35
2023-02-19T05:16:27.636Z,8.47
2023-02-19T05:17:34.600Z,8.46
2023-02-19T05:18:37.724Z,8.47
2023-02-19T05:19:40.678Z,8.53
2023-02-19T05:20:43.788Z,8.50
2023-02-19T05:21:46.681Z,8.45
2023-02-19T05:22:49.554Z,8.51
2023-02-19T05:23:53.420Z,8.56
2023-02-19T05:24:56.578Z,8.57
2023-02-19T05:25:59.496Z,8.54
2023-02-19T05:27:02.521Z,8.56
2023-02-19T05:28:17.532Z,8.56
2023-02-19T05:29:20.456Z,8.54
2023-02-19T05:30:23.344Z,8.50
2023-02-19T05:31:26.936Z,8.46
2023-02-19T05:32:30.036Z,8.43
2023-02-19T05:33:33.136Z,8.41
2023-02-19T05:34:36.051Z,8.39
2023-02-19T05:35:47.616Z,8.40
2023-02-19T05:36:50.278Z,8.40
2023-02-19T05:37:52.931Z,8.38
2023-02-19T05:38:57.365Z,8.35
2023-02-19T05:40:00.202Z,8.37
2023-02-19T05:41:09.751Z,8.39
2023-02-19T05:42:14.516Z,8.35
2023-02-19T05:43:18.211Z,8.32
2023-02-19T05:44:21.485Z,8.30
2023-02-19T05:45:24.309Z,8.30
2023-02-19T05:46:32.613Z,8.29
2023-02-19T05:47:35.715Z,8.29
2023-02-19T05:48:39.762Z,8.28
2023-02-19T05:49:42.655Z,8.29
2023-02-19T05:50:45.550Z,8.29
2023-02-19T05:51:51.353Z,8.28
2023-02-19T05:52:54.414Z,8.28
2023-02-19T05:53:57.935Z,8.27
2023-02-19T05:55:00.694Z,8.28
2023-02-19T05:56:03.955Z,8.24
2023-02-19T05:57:06.825Z,8.25
2023-02-19T05:58:09.717Z,8.25
2023-02-19T05:59:17.033Z,8.23
2023-02-19T06:00:20.840Z,8.29
2023-02-19T06:01:26.988Z,8.28
2023-02-19T06:02:29.761Z,8.23
2023-02-19T06:03:32.539Z,8.21
2023-02-19T06:04:35.348Z,8.25
2023-02-19T06:05:38.661Z,8.33
2023-02-19T06:06:42.749Z,8.29
2023-02-19T06:07:46.102Z,8.24
2023-02-19T06:08:50.666Z,8.24
2023-02-19T06:09:53.591Z,8.30
2023-02-19T06:10:56.413Z,8.33
2023-02-19T06:11:59.190Z,8.33
2023-02-19T06:13:01.896Z,8.32
2023-02-19T06:14:05.346Z,8.46
2023-02-19T06:15:08.302Z,8.48
2023-02-19T06:16:12.005Z,8.42
2023-02-19T06:17:14.801Z,8.44
2023-02-19T06:18:17.862Z,8.44
2023-02-19T06:19:21.030Z,8.52
2023-02-19T06:20:26.030Z,8.46
2023-02-19T06:21:29.122Z,8.50
2023-02-19T06:22:31.901Z,8.47
2023-02-19T06:23:35.177Z,8.47
2023-02-19T06:24:37.928Z,8.54
2023-02-19T06:25:40.632Z,8.51
2023-02-19T06:26:43.474Z,8.53
2023-02-19T06:27:46.680Z,8.58
2023-02-19T06:28:51.274Z,8.64
2023-02-19T06:29:54.229Z,8.65
2023-02-19T06:30:59.002Z,8.62
2023-02-19T06:32:02.406Z,8.62
2023-02-19T06:33:05.210Z,8.60
2023-02-19T06:34:07.976Z,8.57
2023-02-19T06:35:10.660Z,8.60
2023-02-19T06:36:19.210Z,8.60
2023-02-19T06:37:21.952Z,8.65
2023-02-19T06:38:24.697Z,8.65
2023-02-19T06:39:27.842Z,8.64
2023-02-19T06:40:30.555Z,8.64
2023-02-19T06:41:33.735Z,8.67
2023-02-19T06:42:36.471Z,8.80
2023-02-19T06:43:39.418Z,8.76
2023-02-19T06:44:42.380Z,8.70
2023-02-19T06:45:45.380Z,8.69
2023-02-19T06:46:48.316Z,8.67
2023-02-19T06:47:51.273Z,8.69
2023-02-19T06:48:54.471Z,8.77
2023-02-19T06:49:57.294Z,8.75
2023-02-19T06:51:00.797Z,8.74
2023-02-19T06:52:03.918Z,8.76
2023-02-19T06:53:06.789Z,8.78
2023-02-19T06:54:09.972Z,8.80
2023-02-19T06:55:12.866Z,8.78
2023-02-19T06:56:30.626Z,8.77
2023-02-19T06:57:33.657Z,8.79
2023-02-19T06:58:36.522Z,8.77
2023-02-19T06:59:39.211Z,8.77
2023-02-19T07:00:41.990Z,8.78
2023-02-19T07:01:46.411Z,8.78
2023-02-19T07:02:50.079Z,8.81
2023-02-19T07:03:53.916Z,8.82
2023-02-19T07:04:56.892Z,8.84
2023-02-19T07:06:00.998Z,8.83
2023-02-19T07:07:04.764Z,8.85
2023-02-19T07:08:07.588Z,8.84
2023-02-19T07:09:14.757Z,8.79
2023-02-19T07:10:18.085Z,8.82
2023-02-19T07:11:21.007Z,8.81
2023-02-19T07:12:24.313Z,8.81
2023-02-19T07:13:27.777Z,8.83
2023-02-19T07:14:30.817Z,8.81
2023-02-19T07:15:33.532Z,8.82
2023-02-19T07:16:37.207Z,8.83
2023-02-19T07:17:39.953Z,8.81
2023-02-19T07:18:43.179Z,8.82
2023-02-19T07:19:45.914Z,8.81
2023-02-19T07:20:48.856Z,8.82
2023-02-19T07:21:51.697Z,8.83
2023-02-19T07:22:55.212Z,8.85
2023-02-19T07:23:58.479Z,8.85
2023-02-19T07:25:01.239Z,8.90
2023-02-19T07:26:04.215Z,8.95
2023-02-19T07:27:07.137Z,8.93
2023-02-19T07:28:09.995Z,8.90
2023-02-19T07:29:12.888Z,8.96
2023-02-19T07:30:15.888Z,8.96
2023-02-19T07:31:21.179Z,9.08
2023-02-19T07:32:24.126Z,9.02
2023-02-19T07:33:26.982Z,8.99
2023-02-19T07:34:29.946Z,9.01
2023-02-19T07:35:32.804Z,9.02
2023-02-19T07:36:36.212Z,9.08
2023-02-19T07:37:40.615Z,9.13
2023-02-19T07:38:44.069Z,9.20
2023-02-19T07:39:46.999Z,9.21
2023-02-19T07:40:53.889Z,9.19
2023-02-19T07:41:58.437Z,9.16
2023-02-19T07:43:01.281Z,9.16
2023-02-19T07:44:04.513Z,9.14
2023-02-19T07:45:08.159Z,9.14
2023-02-19T07:46:13.192Z,9.20
2023-02-19T07:47:16.437Z,9.29
2023-02-19T07:48:19.595Z,9.27
2023-02-19T07:49:22.413Z,9.29
2023-02-19T07:50:25.303Z,9.29
2023-02-19T07:51:28.106Z,9.36
2023-02-19T07:52:31.208Z,9.38
2023-02-19T07:53:35.965Z,9.44
2023-02-19T07:54:38.876Z,9.48
2023-02-19T07:55:41.689Z,9.48
2023-02-19T07:56:44.628Z,9.54
2023-02-19T07:57:47.471Z,9.58
2023-02-19T07:58:50.382Z,9.60
2023-02-19T07:59:53.379Z,9.60
2023-02-19T08:00:56.353Z,9.67
2023-02-19T08:02:18.084Z,9.66
2023-02-19T08:03:21.294Z,9.68
2023-02-19T08:04:24.229Z,9.69
2023-02-19T08:05:32.384Z,9.66
2023-02-19T08:06:35.588Z,9.72
2023-02-19T08:07:38.534Z,9.72
2023-02-19T08:08:41.779Z,9.70
2023-02-19T08:09:44.540Z,9.65
2023-02-19T08:11:06.200Z,9.64
2023-02-19T08:12:29.452Z,9.63
2023-02-19T08:13:32.310Z,9.62
2023-02-19T08:14:35.120Z,9.57
2023-02-19T08:15:37.745Z,9.56
2023-02-19T08:16:43.377Z,9.50
2023-02-19T08:17:46.601Z,9.44
2023-02-19T08:18:49.682Z,9.39
2023-02-19T08:19:52.489Z,9.40
2023-02-19T08:20:56.405Z,9.32
2023-02-19T08:21:59.425Z,9.30
2023-02-19T08:23:02.613Z,9.31
2023-02-19T08:24:06.057Z,9.31
2023-02-19T08:25:09.030Z,9.28
2023-02-19T08:26:12.234Z,9.26
2023-02-19T08:27:15.089Z,9.20
2023-02-19T08:28:19.053Z,9.20
2023-02-19T08:29:21.875Z,9.24
2023-02-19T08:30:24.961Z,9.23
2023-02-19T08:31:28.097Z,9.18
2023-02-19T08:32:31.007Z,9.16
2023-02-19T08:33:34.056Z,9.19
2023-02-19T08:34:37.600Z,9.14
2023-02-19T08:35:42.189Z,9.08
2023-02-19T08:36:45.064Z,9.08
2023-02-19T08:37:48.162Z,9.05
2023-02-19T08:38:51.082Z,9.02
2023-02-19T08:39:58.624Z,9.05
2023-02-19T08:41:04.676Z,9.01
2023-02-19T08:42:07.731Z,9.03
2023-02-19T08:43:15.871Z,9.09
2023-02-19T08:44:18.797Z,9.06
2023-02-19T08:45:21.762Z,9.05
2023-02-19T08:46:25.024Z,9.06
2023-02-19T08:47:27.957Z,9.04
2023-02-19T08:48:31.105Z,9.00
2023-02-19T08:49:33.971Z,9.00
2023-02-19T08:50:38.338Z,8.98
2023-02-19T08:51:42.040Z,8.98
2023-02-19T08:52:45.190Z,8.99
2023-02-19T08:53:48.397Z,8.97
2023-02-19T08:54:51.460Z,9.11
2023-02-19T08:55:55.036Z,9.14
2023-02-19T08:56:58.620Z,9.07
2023-02-19T08:58:01.752Z,9.04
2023-02-19T08:59:04.661Z,9.04
2023-02-19T09:00:09.103Z,9.14
2023-02-19T09:01:14.818Z,9.10
2023-02-19T09:02:18.048Z,9.08
2023-02-19T09:03:20.903Z,9.05
2023-02-19T09:04:23.880Z,9.10
2023-02-19T09:05:26.945Z,9.05
2023-02-19T09:06:29.917Z,9.06
2023-02-19T09:07:33.049Z,9.04
2023-02-19T09:08:35.910Z,9.04
2023-02-19T09:09:39.636Z,9.11
2023-02-19T09:10:42.769Z,9.22
2023-02-19T09:11:47.396Z,9.19
2023-02-19T09:12:51.373Z,9.14
2023-02-19T09:13:56.803Z,9.10
2023-02-19T09:15:00.574Z,9.05
2023-02-19T09:16:05.281Z,8.98
2023-02-19T09:17:10.063Z,9.04
2023-02-19T09:18:13.868Z,9.16
2023-02-19T09:19:16.883Z,9.07
2023-02-19T09:20:20.240Z,9.14
2023-02-19T09:21:23.972Z,9.06
2023-02-19T09:22:26.967Z,9.04
2023-02-19T09:23:30.466Z,9.15
2023-02-19T09:24:33.713Z,9.20
2023-02-19T09:25:36.529Z,9.16
2023-02-19T09:26:39.430Z,9.16
2023-02-19T09:27:42.405Z,9.08
2023-02-19T09:28:45.263Z,9.06
2023-02-19T09:29:48.648Z,9.00
2023-02-19T09:30:51.547Z,8.98
2023-02-19T09:31:58.843Z,8.95
2023-02-19T09:33:01.720Z,8.93
2023-02-19T09:34:05.850Z,8.96
2023-02-19T09:35:08.865Z,9.05
2023-02-19T09:36:13.902Z,8.98
2023-02-19T09:37:17.825Z,8.90
2023-02-19T09:38:20.978Z,8.86
2023-02-19T09:39:24.790Z,8.87
2023-02-19T09:40:28.477Z,8.84
2023-02-19T09:41:35.824Z,8.89
2023-02-19T09:42:42.078Z,9.04
2023-02-19T09:43:45.341Z,9.04
2023-02-19T09:44:56.226Z,9.01
2023-02-19T09:46:05.328Z,9.02
2023-02-19T09:47:43.626Z,9.04
2023-02-19T09:48:46.766Z,9.11
2023-02-19T09:49:54.347Z,9.21
2023-02-19T09:50:59.780Z,9.17
2023-02-19T09:52:25.196Z,9.20
2023-02-19T09:53:40.486Z,9.19
2023-02-19T09:54:45.571Z,9.24
2023-02-19T09:55:49.338Z,9.26
2023-02-19T09:56:55.586Z,9.27
2023-02-19T09:58:02.596Z,9.25
2023-02-19T09:59:07.931Z,9.23
2023-02-19T10:00:29.489Z,9.33
2023-02-19T10:01:39.741Z,9.34
2023-02-19T10:02:43.316Z,9.40
2023-02-19T10:03:49.268Z,9.42
2023-02-19T10:04:53.418Z,9.45
2023-02-19T10:05:59.464Z,9.52
2023-02-19T10:07:04.141Z,9.56
2023-02-19T10:08:18.838Z,9.63
2023-02-19T10:09:27.448Z,9.70
2023-02-19T10:10:36.546Z,9.77
2023-02-19T10:11:40.548Z,9.88
2023-02-19T10:12:50.635Z,10.01
2023-02-19T10:14:16.091Z,10.08
2023-02-19T10:15:46.219Z,10.10
2023-02-19T10:16:50.578Z,10.16
2023-02-19T10:17:53.506Z,10.17
2023-02-19T10:18:56.858Z,10.21
2023-02-19T10:20:03.787Z,10.28
2023-02-19T10:21:07.277Z,10.34
2023-02-19T10:22:12.669Z,10.40
2023-02-19T10:23:16.964Z,10.42
2023-02-19T10:24:27.903Z,10.42
2023-02-19T10:25:33.808Z,10.51
2023-02-19T10:26:37.449Z,10.60
2023-02-19T10:27:40.563Z,10.71
2023-02-19T10:28:46.299Z,10.89
2023-02-19T10:29:51.367Z,10.99
2023-02-19T10:30:58.456Z,10.94
2023-02-19T10:32:25.234Z,10.96
2023-02-19T10:33:49.632Z,11.12
2023-02-19T10:35:24.928Z,11.19
2023-02-19T10:36:33.504Z,11.17
2023-02-19T10:37:44.886Z,11.08
2023-02-19T10:38:48.653Z,11.00
2023-02-19T10:39:52.481Z,10.96
2023-02-19T10:41:05.823Z,11.02
2023-02-19T10:42:25.804Z,11.07
2023-02-19T10:43:37.527Z,11.11
2023-02-19T10:44:47.727Z,11.08
2023-02-19T10:45:53.242Z,11.15
2023-02-19T10:47:00.085Z,11.19
2023-02-19T10:48:04.115Z,11.12
2023-02-19T10:49:26.944Z,11.11
2023-02-19T10:50:34.788Z,11.16
2023-02-19T10:51:41.465Z,11.17
2023-02-19T10:52:44.629Z,11.28
2023-02-19T10:54:03.052Z,11.34
2023-02-19T10:55:25.492Z,11.41
2023-02-19T10:56:31.576Z,11.59
2023-02-19T10:57:37.861Z,11.69
2023-02-19T10:58:45.408Z,11.85
2023-02-19T10:59:58.216Z,11.97
2023-02-19T11:01:23.522Z,12.15
2023-02-19T11:02:27.663Z,12.29
2023-02-19T11:03:30.556Z,12.39
2023-02-19T11:04:36.011Z,12.51
2023-02-19T11:05:41.669Z,12.50
2023-02-19T11:06:46.964Z,12.57
2023-02-19T11:07:56.344Z,12.57
2023-02-19T11:09:01.443Z,12.43
2023-02-19T11:10:07.634Z,12.38
2023-02-19T11:11:11.263Z,12.32
2023-02-19T11:12:35.490Z,12.29
2023-02-19T11:13:40.385Z,12.27
2023-02-19T11:14:45.879Z,12.25
2023-02-19T11:15:53.976Z,12.13
2023-02-19T11:17:00.804Z,12.01
2023-02-19T11:18:14.964Z,11.97
2023-02-19T11:19:29.560Z,11.93
2023-02-19T11:20:32.772Z,11.84
2023-02-19T11:21:36.212Z,11.81
2023-02-19T11:22:42.223Z,11.85
2023-02-19T11:23:47.769Z,11.77
2023-02-19T11:24:55.886Z,11.75
2023-02-19T11:26:06.170Z,11.75
2023-02-19T11:27:25.269Z,11.78
2023-02-19T11:28:40.190Z,11.79
2023-02-19T11:29:43.185Z,11.70
2023-02-19T11:30:48.039Z,11.69
2023-02-19T11:31:52.123Z,11.75
2023-02-19T11:32:55.237Z,11.71
2023-02-19T11:34:02.251Z,11.66
2023-02-19T11:35:22.791Z,11.61
2023-02-19T11:36:37.646Z,11.62
2023-02-19T11:37:59.227Z,11.74
2023-02-19T11:39:20.319Z,11.78
2023-02-19T11:40:34.881Z,11.82
2023-02-19T11:41:46.847Z,11.88
2023-02-19T11:43:15.996Z,11.97
2023-02-19T11:45:08.827Z,12.16
2023-02-19T11:46:36.795Z,12.26
2023-02-19T11:48:00.391Z,12.42
2023-02-19T11:49:21.967Z,12.56
2023-02-19T11:50:48.869Z,12.68
2023-02-19T11:52:25.014Z,12.83
2023-02-19T11:53:32.763Z,12.94
2023-02-19T11:54:52.932Z,12.98
2023-02-19T11:56:15.943Z,13.03
2023-02-19T11:57:35.125Z,13.17
2023-02-19T11:59:01.370Z,13.14
2023-02-19T12:00:16.740Z,13.23
2023-02-19T12:01:43.288Z,13.21
2023-02-19T12:02:47.686Z,13.15
2023-02-19T12:03:56.811Z,13.15
2023-02-19T12:04:59.746Z,13.11
2023-02-19T12:06:28.317Z,13.09
2023-02-19T12:07:50.092Z,13.09
2023-02-19T12:09:12.862Z,13.14
2023-02-19T12:10:47.706Z,13.18
2023-02-19T12:11:59.759Z,13.24
2023-02-19T12:13:47.636Z,13.28
2023-02-19T12:15:26.626Z,13.33
2023-02-19T12:16:34.531Z,13.30
2023-02-19T12:18:34.430Z,13.34
2023-02-19T12:19:50.044Z,13.44
2023-02-19T12:21:07.202Z,13.51
2023-02-19T12:22:25.741Z,13.56
2023-02-19T12:23:47.050Z,13.53
2023-02-19T12:24:50.087Z,13.57
2023-02-19T12:26:07.382Z,13.53
2023-02-19T12:27:19.248Z,13.58
2023-02-19T12:28:44.934Z,13.53
2023-02-19T12:30:17.741Z,13.46
2023-02-19T12:31:55.306Z,13.37
2023-02-19T12:33:13.442Z,13.32
2023-02-19T12:34:35.431Z,13.25
2023-02-19T12:36:05.228Z,13.26
2023-02-19T12:37:29.897Z,13.27
2023-02-19T12:39:11.366Z,13.32
2023-02-19T12:40:34.526Z,13.31
2023-02-19T12:42:07.615Z,13.46
2023-02-19T12:43:18.160Z,13.46
2023-02-19T12:44:36.496Z,13.46
2023-02-19T12:46:10.040Z,13.47
2023-02-19T12:47:29.443Z,13.43
2023-02-19T12:48:36.801Z,13.38
2023-02-19T12:49:50.008Z,13.39
2023-02-19T12:51:14.092Z,13.44
2023-02-19T12:52:33.722Z,13.41
2023-02-19T12:53:58.238Z,13.39
2023-02-19T12:55:27.056Z,13.48
2023-02-19T12:56:37.313Z,13.51
2023-02-19T12:57:41.329Z,13.53
2023-02-19T12:59:00.735Z,13.52
2023-02-19T13:00:41.768Z,13.52
2023-02-19T13:01:54.770Z,13.53
2023-02-19T13:03:04.666Z,13.43
2023-02-19T13:04:33.161Z,13.26
2023-02-19T13:06:03.688Z,13.06
2023-02-19T13:07:17.540Z,12.87
2023-02-19T13:08:24.991Z,12.66
2023-02-19T13:09:44.576Z,12.52
2023-02-19T13:11:12.989Z,12.39
2023-02-19T13:12:26.583Z,12.28
2023-02-19T13:13:55.763Z,12.26
2023-02-19T13:15:01.367Z,12.27
2023-02-19T13:16:13.907Z,12.32
2023-02-19T13:17:43.232Z,12.42
2023-02-19T13:18:51.779Z,12.41
2023-02-19T13:20:02.548Z,12.41
2023-02-19T13:21:06.636Z,12.47
2023-02-19T13:23:09.238Z,12.51
2023-02-19T13:24:22.222Z,12.55
2023-02-19T13:25:45.619Z,12.61
2023-02-19T13:27:04.110Z,12.71
2023-02-19T13:28:19.170Z,12.80
2023-02-19T13:29:48.257Z,12.91
2023-02-19T13:31:15.969Z,12.95
2023-02-19T13:33:02.086Z,13.01
2023-02-19T13:34:17.341Z,13.08
2023-02-19T13:35:40.056Z,13.09
2023-02-19T13:36:44.835Z,13.13
2023-02-19T13:37:50.425Z,13.06
2023-02-19T13:38:58.225Z,13.04
2023-02-19T13:40:28.262Z,13.05
2023-02-19T13:41:33.692Z,13.00
2023-02-19T13:42:38.021Z,13.02
2023-02-19T13:43:43.545Z,12.96
2023-02-19T13:44:51.125Z,12.91
2023-02-19T13:46:03.866Z,12.84
2023-02-19T13:47:45.848Z,12.87
2023-02-19T13:49:27.843Z,12.83
2023-02-19T13:50:33.989Z,12.75
2023-02-19T13:51:39.820Z,12.75
2023-02-19T13:52:44.777Z,12.71
2023-02-19T13:53:58.169Z,12.71
2023-02-19T13:55:43.054Z,12.64
2023-02-19T13:56:46.889Z,12.51
2023-02-19T13:57:50.665Z,12.39
2023-02-19T14:02:05.896Z,11.52
2023-02-19T14:03:30.326Z,11.05
2023-02-19T14:04:48.307Z,10.79
2023-02-19T14:06:02.056Z,10.51
2023-02-19T14:07:06.188Z,10.19
2023-02-19T14:08:10.097Z,9.99
2023-02-19T14:09:36.883Z,9.82
2023-02-19T14:10:58.206Z,9.70
2023-02-19T14:12:12.201Z,9.56
2023-02-19T14:13:49.789Z,9.55
2023-02-19T14:14:57.265Z,9.51
2023-02-19T14:16:01.722Z,9.47
2023-02-19T14:17:42.874Z,9.50
2023-02-19T14:18:47.929Z,9.42
2023-02-19T14:20:17.646Z,9.40
2023-02-19T14:21:35.722Z,9.37
2023-02-19T14:22:53.399Z,9.33
2023-02-19T14:23:59.870Z,9.36
2023-02-19T14:25:10.485Z,9.34
2023-02-19T14:26:18.349Z,9.37
2023-02-19T14:27:23.596Z,9.38
2023-02-19T14:28:36.465Z,9.38
2023-02-19T14:29:41.494Z,9.40
2023-02-19T14:30:56.494Z,9.42
2023-02-19T14:32:02.698Z,9.40
2023-02-19T14:33:12.846Z,9.34
2023-02-19T14:34:25.944Z,9.34
2023-02-19T14:35:43.486Z,9.35
2023-02-19T14:37:01.185Z,9.35
2023-02-19T14:38:06.967Z,9.40
2023-02-19T14:39:19.449Z,9.35
2023-02-19T14:40:38.158Z,9.36
2023-02-19T14:41:49.624Z,9.32
2023-02-19T14:43:00.893Z,9.30
2023-02-19T14:44:08.498Z,9.24
2023-02-19T14:45:17.910Z,9.29
2023-02-19T14:46:24.827Z,9.28
2023-02-19T14:47:35.176Z,9.27
2023-02-19T14:48:46.560Z,9.25
2023-02-19T14:50:05.391Z,9.22
2023-02-19T14:51:17.790Z,9.14
2023-02-19T14:52:26.553Z,9.12
2023-02-19T14:53:33.668Z,9.11
2023-02-19T14:54:53.337Z,9.04
2023-02-19T14:56:00.539Z,9.03
2023-02-19T14:57:12.416Z,9.02
2023-02-19T14:58:27.069Z,9.00
2023-02-19T14:59:34.692Z,8.93
2023-02-19T15:00:41.925Z,8.99
2023-02-19T15:01:46.503Z,8.99
2023-02-19T15:02:54.606Z,9.04
2023-02-19T15:03:58.710Z,9.00
2023-02-19T15:05:20.115Z,9.02
2023-02-19T15:06:25.414Z,9.10
2023-02-19T15:07:34.300Z,9.06
2023-02-19T15:08:46.274Z,9.06
2023-02-19T15:09:55.756Z,9.01
2023-02-19T15:11:03.257Z,8.94
2023-02-19T15:12:08.066Z,8.96